LEAB/ABC METAR and TAF weather

Enter ICAO airport designator
Station Type Date Time Source
LEAB METAR 2020/09/20 11:00 UTC NOAA

LEAB 201100Z 30006KT 9999 BKN030 20/13 Q1021 NOSIG


Station Type Date Time Source
LEAB Decoded METAR 2020/09/20 11:00 UTC NOAA

Albacete / Los Llanos, Spain (LEAB) 38-57N 001-51W 704M
Sep 20, 2020 - 07:00 AM EDT / 2020.09.20 1100 UTC
Wind: from the WNW (300 degrees) at 7 MPH (6 KT):0
Visibility: greater than 7 mile(s):0
Sky conditions: mostly cloudy
Temperature: 68 F (20 C)
Dew Point: 55 F (13 C)
Relative Humidity: 64%
Pressure (altimeter): 30.15 in. Hg (1021 hPa)
ob: LEAB 201100Z 30006KT 9999 BKN030 20/13 Q1021 NOSIG
cycle: 11

Station Type Date Time Source
LEAB TAF 2020/09/20 12:00 UTC NOAA

TAF LEAB 201100Z 2012/2112 30010KT 9999 BKN030 TX26/2016Z TN11/2106Z PROB30
TEMPO 2012/2014 31015G25KT
BECMG 2022/2024 VRB05KT PROB40
TEMPO 2105/2109 BKN008

Example: see airport list